sensor_id;sensor_type;location;lat;lon;timestamp;P1;durP1;ratioP1;P2;durP2;ratioP2
40252;SDS011;25972;51.854;4.534;2023-12-04T00:01:11;19.17;;;7.45;;
40252;SDS011;25972;51.854;4.534;2023-12-04T00:03:37;18.38;;;6.65;;
40252;SDS011;25972;51.854;4.534;2023-12-04T00:06:03;17.45;;;6.75;;
40252;SDS011;25972;51.854;4.534;2023-12-04T00:08:29;18.52;;;6.00;;
40252;SDS011;25972;51.854;4.534;2023-12-04T00:10:55;13.97;;;5.60;;
40252;SDS011;25972;51.854;4.534;2023-12-04T00:13:22;16.20;;;6.30;;
40252;SDS011;25972;51.854;4.534;2023-12-04T00:15:48;18.13;;;6.63;;
40252;SDS011;25972;51.854;4.534;2023-12-04T00:18:15;13.83;;;6.13;;
40252;SDS011;25972;51.854;4.534;2023-12-04T00:20:41;18.03;;;6.33;;
40252;SDS011;25972;51.854;4.534;2023-12-04T00:23:08;16.15;;;6.28;;
40252;SDS011;25972;51.854;4.534;2023-12-04T00:25:34;18.40;;;6.93;;
40252;SDS011;25972;51.854;4.534;2023-12-04T00:28:00;15.73;;;6.78;;
40252;SDS011;25972;51.854;4.534;2023-12-04T00:30:26;15.87;;;6.77;;
40252;SDS011;25972;51.854;4.534;2023-12-04T00:32:52;14.63;;;6.10;;
40252;SDS011;25972;51.854;4.534;2023-12-04T00:35:20;17.48;;;6.93;;
40252;SDS011;25972;51.854;4.534;2023-12-04T00:37:46;14.27;;;6.13;;
40252;SDS011;25972;51.854;4.534;2023-12-04T00:40:12;11.13;;;4.73;;
40252;SDS011;25972;51.854;4.534;2023-12-04T00:42:38;17.95;;;6.30;;
40252;SDS011;25972;51.854;4.534;2023-12-04T00:45:04;8.93;;;3.65;;
40252;SDS011;25972;51.854;4.534;2023-12-04T00:47:31;17.95;;;6.75;;
40252;SDS011;25972;51.854;4.534;2023-12-04T00:49:57;18.17;;;6.87;;
40252;SDS011;25972;51.854;4.534;2023-12-04T00:52:24;13.43;;;5.90;;
40252;SDS011;25972;51.854;4.534;2023-12-04T00:54:50;15.07;;;6.88;;
40252;SDS011;25972;51.854;4.534;2023-12-04T00:57:16;17.77;;;6.97;;
40252;SDS011;25972;51.854;4.534;2023-12-04T00:59:42;15.63;;;5.60;;
40252;SDS011;25972;51.854;4.534;2023-12-04T01:02:08;15.60;;;6.53;;
40252;SDS011;25972;51.854;4.534;2023-12-04T01:04:34;13.95;;;6.13;;
40252;SDS011;25972;51.854;4.534;2023-12-04T01:07:00;15.05;;;6.07;;
40252;SDS011;25972;51.854;4.534;2023-12-04T01:09:28;16.30;;;5.70;;
40252;SDS011;25972;51.854;4.534;2023-12-04T01:11:54;14.90;;;5.93;;
40252;SDS011;25972;51.854;4.534;2023-12-04T01:14:20;14.65;;;6.13;;
40252;SDS011;25972;51.854;4.534;2023-12-04T01:16:46;16.50;;;6.00;;
40252;SDS011;25972;51.854;4.534;2023-12-04T01:19:12;15.35;;;6.22;;
40252;SDS011;25972;51.854;4.534;2023-12-04T01:21:38;18.10;;;6.30;;
40252;SDS011;25972;51.854;4.534;2023-12-04T01:24:04;17.08;;;6.53;;
40252;SDS011;25972;51.854;4.534;2023-12-04T01:26:32;15.15;;;5.95;;
40252;SDS011;25972;51.854;4.534;2023-12-04T01:28:58;15.90;;;5.80;;
40252;SDS011;25972;51.854;4.534;2023-12-04T01:31:24;12.43;;;5.38;;
40252;SDS011;25972;51.854;4.534;2023-12-04T01:33:50;13.45;;;5.00;;
40252;SDS011;25972;51.854;4.534;2023-12-04T01:36:16;22.27;;;6.50;;
40252;SDS011;25972;51.854;4.534;2023-12-04T01:38:42;15.88;;;6.43;;
40252;SDS011;25972;51.854;4.534;2023-12-04T01:41:08;17.42;;;6.85;;
40252;SDS011;25972;51.854;4.534;2023-12-04T01:43:36;15.98;;;5.70;;
40252;SDS011;25972;51.854;4.534;2023-12-04T01:46:02;18.42;;;6.10;;
40252;SDS011;25972;51.854;4.534;2023-12-04T01:48:28;17.40;;;6.72;;
40252;SDS011;25972;51.854;4.534;2023-12-04T01:50:55;12.48;;;5.47;;
40252;SDS011;25972;51.854;4.534;2023-12-04T01:53:24;14.65;;;5.40;;
40252;SDS011;25972;51.854;4.534;2023-12-04T01:55:50;16.63;;;5.82;;
40252;SDS011;25972;51.854;4.534;2023-12-04T01:58:16;14.80;;;5.95;;
40252;SDS011;25972;51.854;4.534;2023-12-04T02:00:47;14.23;;;6.13;;
40252;SDS011;25972;51.854;4.534;2023-12-04T02:03:13;14.30;;;6.07;;
40252;SDS011;25972;51.854;4.534;2023-12-04T02:05:39;16.17;;;5.85;;
40252;SDS011;25972;51.854;4.534;2023-12-04T02:08:06;13.13;;;5.82;;
40252;SDS011;25972;51.854;4.534;2023-12-04T02:10:32;16.05;;;5.65;;
40252;SDS011;25972;51.854;4.534;2023-12-04T02:12:58;17.50;;;6.68;;
40252;SDS011;25972;51.854;4.534;2023-12-04T02:15:24;16.15;;;5.53;;
40252;SDS011;25972;51.854;4.534;2023-12-04T02:17:51;14.00;;;6.13;;
40252;SDS011;25972;51.854;4.534;2023-12-04T02:20:18;14.18;;;5.63;;
40252;SDS011;25972;51.854;4.534;2023-12-04T02:22:44;13.27;;;5.53;;
40252;SDS011;25972;51.854;4.534;2023-12-04T02:25:11;14.70;;;5.82;;
40252;SDS011;25972;51.854;4.534;2023-12-04T02:27:38;16.38;;;6.20;;
40252;SDS011;25972;51.854;4.534;2023-12-04T02:30:10;14.82;;;5.82;;
40252;SDS011;25972;51.854;4.534;2023-12-04T02:32:38;16.52;;;5.97;;
40252;SDS011;25972;51.854;4.534;2023-12-04T02:35:09;4.35;;;2.28;;
40252;SDS011;25972;51.854;4.534;2023-12-04T02:37:36;8.95;;;3.70;;
40252;SDS011;25972;51.854;4.534;2023-12-04T02:40:03;14.88;;;5.68;;
40252;SDS011;25972;51.854;4.534;2023-12-04T02:42:33;13.88;;;5.22;;
40252;SDS011;25972;51.854;4.534;2023-12-04T02:44:59;14.13;;;6.00;;
40252;SDS011;25972;51.854;4.534;2023-12-04T02:47:25;13.55;;;5.28;;
40252;SDS011;25972;51.854;4.534;2023-12-04T02:49:51;11.02;;;4.60;;
40252;SDS011;25972;51.854;4.534;2023-12-04T02:52:18;13.50;;;5.15;;
40252;SDS011;25972;51.854;4.534;2023-12-04T02:54:44;13.88;;;6.03;;
40252;SDS011;25972;51.854;4.534;2023-12-04T02:57:10;11.98;;;5.13;;
40252;SDS011;25972;51.854;4.534;2023-12-04T02:59:37;15.93;;;5.28;;
40252;SDS011;25972;51.854;4.534;2023-12-04T03:02:03;14.52;;;5.55;;
40252;SDS011;25972;51.854;4.534;2023-12-04T03:04:29;10.90;;;5.10;;
40252;SDS011;25972;51.854;4.534;2023-12-04T03:06:55;11.13;;;4.00;;
40252;SDS011;25972;51.854;4.534;2023-12-04T03:09:21;10.57;;;4.30;;
40252;SDS011;25972;51.854;4.534;2023-12-04T03:11:47;14.00;;;5.47;;
40252;SDS011;25972;51.854;4.534;2023-12-04T03:14:13;12.05;;;4.93;;
40252;SDS011;25972;51.854;4.534;2023-12-04T03:16:41;12.93;;;5.20;;
40252;SDS011;25972;51.854;4.534;2023-12-04T03:19:07;13.07;;;5.15;;
40252;SDS011;25972;51.854;4.534;2023-12-04T03:21:33;12.18;;;4.82;;
40252;SDS011;25972;51.854;4.534;2023-12-04T03:23:59;13.57;;;5.15;;
40252;SDS011;25972;51.854;4.534;2023-12-04T03:26:25;13.95;;;4.72;;
40252;SDS011;25972;51.854;4.534;2023-12-04T03:28:51;15.57;;;5.50;;
40252;SDS011;25972;51.854;4.534;2023-12-04T03:31:17;12.10;;;4.70;;
40252;SDS011;25972;51.854;4.534;2023-12-04T03:33:45;10.00;;;4.10;;
40252;SDS011;25972;51.854;4.534;2023-12-04T03:36:11;6.20;;;3.13;;
40252;SDS011;25972;51.854;4.534;2023-12-04T03:38:37;12.50;;;4.43;;
40252;SDS011;25972;51.854;4.534;2023-12-04T03:41:03;16.47;;;5.17;;
40252;SDS011;25972;51.854;4.534;2023-12-04T03:43:29;12.07;;;4.43;;
40252;SDS011;25972;51.854;4.534;2023-12-04T03:45:55;9.45;;;4.22;;
40252;SDS011;25972;51.854;4.534;2023-12-04T03:48:21;11.05;;;3.97;;
40252;SDS011;25972;51.854;4.534;2023-12-04T03:50:48;15.07;;;5.20;;
40252;SDS011;25972;51.854;4.534;2023-12-04T03:53:14;13.13;;;5.13;;
40252;SDS011;25972;51.854;4.534;2023-12-04T03:55:41;12.15;;;4.93;;
40252;SDS011;25972;51.854;4.534;2023-12-04T03:58:07;12.15;;;4.88;;
40252;SDS011;25972;51.854;4.534;2023-12-04T04:00:33;8.67;;;3.37;;
40252;SDS011;25972;51.854;4.534;2023-12-04T04:03:00;11.65;;;4.43;;
40252;SDS011;25972;51.854;4.534;2023-12-04T04:05:26;14.00;;;5.68;;
40252;SDS011;25972;51.854;4.534;2023-12-04T04:07:54;12.77;;;5.05;;
40252;SDS011;25972;51.854;4.534;2023-12-04T04:10:20;12.13;;;4.15;;
40252;SDS011;25972;51.854;4.534;2023-12-04T04:12:46;14.10;;;4.32;;
40252;SDS011;25972;51.854;4.534;2023-12-04T04:17:43;5.78;;;2.72;;
40252;SDS011;25972;51.854;4.534;2023-12-04T04:20:09;14.05;;;4.82;;
40252;SDS011;25972;51.854;4.534;2023-12-04T04:22:37;13.93;;;5.50;;
40252;SDS011;25972;51.854;4.534;2023-12-04T04:25:07;13.73;;;5.15;;
40252;SDS011;25972;51.854;4.534;2023-12-04T04:27:33;11.38;;;4.45;;
40252;SDS011;25972;51.854;4.534;2023-12-04T04:29:59;12.80;;;5.03;;
40252;SDS011;25972;51.854;4.534;2023-12-04T04:32:25;12.30;;;4.70;;
40252;SDS011;25972;51.854;4.534;2023-12-04T04:34:52;12.40;;;5.10;;
40252;SDS011;25972;51.854;4.534;2023-12-04T04:37:18;11.40;;;4.57;;
40252;SDS011;25972;51.854;4.534;2023-12-04T04:39:44;10.02;;;5.47;;
40252;SDS011;25972;51.854;4.534;2023-12-04T04:42:12;11.95;;;5.03;;
40252;SDS011;25972;51.854;4.534;2023-12-04T04:44:39;12.32;;;4.85;;
40252;SDS011;25972;51.854;4.534;2023-12-04T04:47:05;10.35;;;4.47;;
40252;SDS011;25972;51.854;4.534;2023-12-04T04:49:31;11.65;;;4.72;;
40252;SDS011;25972;51.854;4.534;2023-12-04T04:51:57;12.90;;;5.00;;
40252;SDS011;25972;51.854;4.534;2023-12-04T04:54:23;12.23;;;4.70;;
40252;SDS011;25972;51.854;4.534;2023-12-04T04:56:49;12.13;;;4.88;;
40252;SDS011;25972;51.854;4.534;2023-12-04T04:59:17;11.00;;;4.55;;
40252;SDS011;25972;51.854;4.534;2023-12-04T05:01:43;9.90;;;4.15;;
40252;SDS011;25972;51.854;4.534;2023-12-04T05:04:09;11.00;;;4.45;;
40252;SDS011;25972;51.854;4.534;2023-12-04T05:06:35;9.45;;;4.07;;
40252;SDS011;25972;51.854;4.534;2023-12-04T05:09:01;12.00;;;5.53;;
40252;SDS011;25972;51.854;4.534;2023-12-04T05:11:28;11.48;;;5.57;;
40252;SDS011;25972;51.854;4.534;2023-12-04T05:13:54;12.17;;;5.00;;
40252;SDS011;25972;51.854;4.534;2023-12-04T05:16:21;3.70;;;2.00;;
40252;SDS011;25972;51.854;4.534;2023-12-04T05:18:47;11.38;;;4.45;;
40252;SDS011;25972;51.854;4.534;2023-12-04T05:21:13;12.75;;;5.15;;
40252;SDS011;25972;51.854;4.534;2023-12-04T05:23:40;10.68;;;5.10;;
40252;SDS011;25972;51.854;4.534;2023-12-04T05:26:06;8.52;;;3.63;;
40252;SDS011;25972;51.854;4.534;2023-12-04T05:28:32;10.50;;;4.63;;
40252;SDS011;25972;51.854;4.534;2023-12-04T05:30:59;12.73;;;5.45;;
40252;SDS011;25972;51.854;4.534;2023-12-04T05:33:27;14.55;;;5.32;;
40252;SDS011;25972;51.854;4.534;2023-12-04T05:35:53;13.73;;;5.22;;
40252;SDS011;25972;51.854;4.534;2023-12-04T05:38:19;10.63;;;4.78;;
40252;SDS011;25972;51.854;4.534;2023-12-04T05:40:45;12.57;;;5.65;;
40252;SDS011;25972;51.854;4.534;2023-12-04T05:43:11;12.23;;;4.95;;
40252;SDS011;25972;51.854;4.534;2023-12-04T05:45:38;14.77;;;5.65;;
40252;SDS011;25972;51.854;4.534;2023-12-04T05:48:04;11.57;;;5.05;;
40252;SDS011;25972;51.854;4.534;2023-12-04T05:50:32;11.55;;;5.28;;
40252;SDS011;25972;51.854;4.534;2023-12-04T05:52:57;11.32;;;5.38;;
40252;SDS011;25972;51.854;4.534;2023-12-04T05:55:24;14.45;;;3.83;;
40252;SDS011;25972;51.854;4.534;2023-12-04T05:57:50;12.80;;;5.47;;
40252;SDS011;25972;51.854;4.534;2023-12-04T06:00:16;12.57;;;5.45;;
40252;SDS011;25972;51.854;4.534;2023-12-04T06:02:42;11.93;;;5.53;;
40252;SDS011;25972;51.854;4.534;2023-12-04T06:05:08;13.35;;;5.60;;
40252;SDS011;25972;51.854;4.534;2023-12-04T06:07:36;14.23;;;5.72;;
40252;SDS011;25972;51.854;4.534;2023-12-04T06:10:03;4.18;;;2.72;;
40252;SDS011;25972;51.854;4.534;2023-12-04T06:12:30;12.85;;;6.60;;
40252;SDS011;25972;51.854;4.534;2023-12-04T06:14:56;11.50;;;5.15;;
40252;SDS011;25972;51.854;4.534;2023-12-04T06:17:23;14.15;;;6.13;;
40252;SDS011;25972;51.854;4.534;2023-12-04T06:19:49;8.87;;;4.60;;
40252;SDS011;25972;51.854;4.534;2023-12-04T06:22:15;12.35;;;4.93;;
40252;SDS011;25972;51.854;4.534;2023-12-04T06:24:45;5.65;;;3.15;;
40252;SDS011;25972;51.854;4.534;2023-12-04T06:27:12;8.15;;;3.67;;
40252;SDS011;25972;51.854;4.534;2023-12-04T06:29:41;12.20;;;5.65;;
40252;SDS011;25972;51.854;4.534;2023-12-04T06:32:09;12.73;;;5.75;;
40252;SDS011;25972;51.854;4.534;2023-12-04T06:34:36;7.30;;;3.75;;
40252;SDS011;25972;51.854;4.534;2023-12-04T06:37:02;10.90;;;4.97;;
40252;SDS011;25972;51.854;4.534;2023-12-04T06:39:33;3.33;;;2.38;;
40252;SDS011;25972;51.854;4.534;2023-12-04T06:42:01;7.07;;;4.03;;
40252;SDS011;25972;51.854;4.534;2023-12-04T06:44:27;12.02;;;5.30;;
40252;SDS011;25972;51.854;4.534;2023-12-04T06:46:54;12.10;;;5.45;;
40252;SDS011;25972;51.854;4.534;2023-12-04T06:49:23;5.28;;;3.65;;
40252;SDS011;25972;51.854;4.534;2023-12-04T06:51:50;17.35;;;6.60;;
40252;SDS011;25972;51.854;4.534;2023-12-04T06:54:16;11.50;;;5.57;;
40252;SDS011;25972;51.854;4.534;2023-12-04T06:56:43;11.90;;;5.28;;
40252;SDS011;25972;51.854;4.534;2023-12-04T06:59:10;7.25;;;3.70;;
40252;SDS011;25972;51.854;4.534;2023-12-04T07:01:36;10.75;;;5.50;;
40252;SDS011;25972;51.854;4.534;2023-12-04T07:04:02;15.35;;;4.95;;
40252;SDS011;25972;51.854;4.534;2023-12-04T07:06:34;9.20;;;3.90;;
40252;SDS011;25972;51.854;4.534;2023-12-04T07:09:00;10.02;;;4.47;;
40252;SDS011;25972;51.854;4.534;2023-12-04T07:11:26;11.25;;;5.72;;
40252;SDS011;25972;51.854;4.534;2023-12-04T07:13:52;8.68;;;4.45;;
40252;SDS011;25972;51.854;4.534;2023-12-04T07:16:20;5.88;;;3.75;;
40252;SDS011;25972;51.854;4.534;2023-12-04T07:18:45;10.85;;;5.95;;
40252;SDS011;25972;51.854;4.534;2023-12-04T07:21:11;8.57;;;4.30;;
40252;SDS011;25972;51.854;4.534;2023-12-04T07:23:37;4.10;;;3.20;;
40252;SDS011;25972;51.854;4.534;2023-12-04T07:26:03;11.60;;;4.95;;
40252;SDS011;25972;51.854;4.534;2023-12-04T07:28:31;8.18;;;5.05;;
40252;SDS011;25972;51.854;4.534;2023-12-04T07:30:57;9.20;;;3.88;;
40252;SDS011;25972;51.854;4.534;2023-12-04T07:33:25;9.18;;;4.93;;
40252;SDS011;25972;51.854;4.534;2023-12-04T07:35:51;13.50;;;6.15;;
40252;SDS011;25972;51.854;4.534;2023-12-04T07:38:17;11.98;;;6.35;;
40252;SDS011;25972;51.854;4.534;2023-12-04T07:40:43;10.30;;;5.75;;
40252;SDS011;25972;51.854;4.534;2023-12-04T07:43:10;9.38;;;5.25;;
40252;SDS011;25972;51.854;4.534;2023-12-04T07:45:38;10.48;;;5.65;;
40252;SDS011;25972;51.854;4.534;2023-12-04T07:48:04;14.93;;;6.10;;
40252;SDS011;25972;51.854;4.534;2023-12-04T07:50:32;13.20;;;6.43;;
40252;SDS011;25972;51.854;4.534;2023-12-04T07:52:58;9.40;;;5.10;;
40252;SDS011;25972;51.854;4.534;2023-12-04T07:55:24;11.52;;;5.90;;
40252;SDS011;25972;51.854;4.534;2023-12-04T07:57:50;8.02;;;5.13;;
40252;SDS011;25972;51.854;4.534;2023-12-04T08:00:16;7.30;;;4.68;;
40252;SDS011;25972;51.854;4.534;2023-12-04T08:02:47;11.93;;;5.63;;
40252;SDS011;25972;51.854;4.534;2023-12-04T08:05:13;9.82;;;5.38;;
40252;SDS011;25972;51.854;4.534;2023-12-04T08:07:41;7.78;;;4.53;;
40252;SDS011;25972;51.854;4.534;2023-12-04T08:10:07;7.78;;;5.35;;
40252;SDS011;25972;51.854;4.534;2023-12-04T08:12:34;9.95;;;6.25;;
40252;SDS011;25972;51.854;4.534;2023-12-04T08:15:00;7.85;;;4.40;;
40252;SDS011;25972;51.854;4.534;2023-12-04T08:17:27;12.10;;;6.40;;
40252;SDS011;25972;51.854;4.534;2023-12-04T08:19:52;8.85;;;5.25;;
40252;SDS011;25972;51.854;4.534;2023-12-04T08:22:19;5.15;;;4.10;;
40252;SDS011;25972;51.854;4.534;2023-12-04T08:24:47;7.40;;;4.60;;
40252;SDS011;25972;51.854;4.534;2023-12-04T08:27:12;10.82;;;6.75;;
40252;SDS011;25972;51.854;4.534;2023-12-04T08:29:39;12.02;;;6.45;;
40252;SDS011;25972;51.854;4.534;2023-12-04T08:32:05;12.10;;;6.47;;
40252;SDS011;25972;51.854;4.534;2023-12-04T08:34:31;9.30;;;6.03;;
40252;SDS011;25972;51.854;4.534;2023-12-04T08:36:57;4.43;;;3.97;;
40252;SDS011;25972;51.854;4.534;2023-12-04T08:39:23;13.35;;;6.57;;
40252;SDS011;25972;51.854;4.534;2023-12-04T08:41:51;9.77;;;5.80;;
40252;SDS011;25972;51.854;4.534;2023-12-04T08:44:17;12.57;;;6.85;;
40252;SDS011;25972;51.854;4.534;2023-12-04T08:46:43;7.78;;;5.45;;
40252;SDS011;25972;51.854;4.534;2023-12-04T08:49:10;9.38;;;6.53;;
40252;SDS011;25972;51.854;4.534;2023-12-04T08:51:36;7.45;;;5.03;;
40252;SDS011;25972;51.854;4.534;2023-12-04T08:54:02;12.77;;;7.30;;
40252;SDS011;25972;51.854;4.534;2023-12-04T08:56:28;10.18;;;6.68;;
40252;SDS011;25972;51.854;4.534;2023-12-04T08:58:56;6.43;;;5.40;;
40252;SDS011;25972;51.854;4.534;2023-12-04T09:01:23;7.80;;;5.43;;
40252;SDS011;25972;51.854;4.534;2023-12-04T09:03:49;9.80;;;6.88;;
40252;SDS011;25972;51.854;4.534;2023-12-04T09:06:15;7.05;;;6.07;;
40252;SDS011;25972;51.854;4.534;2023-12-04T09:08:41;8.75;;;7.10;;
40252;SDS011;25972;51.854;4.534;2023-12-04T09:11:07;10.77;;;7.28;;
40252;SDS011;25972;51.854;4.534;2023-12-04T09:13:33;12.65;;;8.23;;
40252;SDS011;25972;51.854;4.534;2023-12-04T09:16:01;9.48;;;7.03;;
40252;SDS011;25972;51.854;4.534;2023-12-04T09:18:27;12.10;;;7.60;;
40252;SDS011;25972;51.854;4.534;2023-12-04T09:20:53;13.35;;;8.05;;
40252;SDS011;25972;51.854;4.534;2023-12-04T09:23:19;19.17;;;7.38;;
40252;SDS011;25972;51.854;4.534;2023-12-04T09:25:45;11.77;;;8.52;;
40252;SDS011;25972;51.854;4.534;2023-12-04T09:28:11;8.93;;;7.82;;
40252;SDS011;25972;51.854;4.534;2023-12-04T09:30:37;9.05;;;6.82;;
40252;SDS011;25972;51.854;4.534;2023-12-04T09:33:04;10.82;;;7.50;;
40252;SDS011;25972;51.854;4.534;2023-12-04T09:35:31;11.68;;;8.52;;
40252;SDS011;25972;51.854;4.534;2023-12-04T09:37:57;8.80;;;6.40;;
40252;SDS011;25972;51.854;4.534;2023-12-04T09:40:23;10.73;;;8.13;;
40252;SDS011;25972;51.854;4.534;2023-12-04T09:42:49;10.95;;;6.82;;
40252;SDS011;25972;51.854;4.534;2023-12-04T09:45:16;12.07;;;7.50;;
40252;SDS011;25972;51.854;4.534;2023-12-04T09:47:43;10.88;;;8.65;;
40252;SDS011;25972;51.854;4.534;2023-12-04T09:50:12;11.35;;;7.93;;
40252;SDS011;25972;51.854;4.534;2023-12-04T09:52:42;8.57;;;6.93;;
40252;SDS011;25972;51.854;4.534;2023-12-04T09:55:08;7.15;;;6.45;;
40252;SDS011;25972;51.854;4.534;2023-12-04T09:57:34;10.95;;;8.32;;
40252;SDS011;25972;51.854;4.534;2023-12-04T10:00:00;11.43;;;8.23;;
40252;SDS011;25972;51.854;4.534;2023-12-04T10:02:37;11.13;;;9.30;;
40252;SDS011;25972;51.854;4.534;2023-12-04T10:05:04;13.77;;;8.65;;
40252;SDS011;25972;51.854;4.534;2023-12-04T10:07:32;8.02;;;7.25;;
40252;SDS011;25972;51.854;4.534;2023-12-04T10:09:58;10.63;;;8.10;;
40252;SDS011;25972;51.854;4.534;2023-12-04T10:12:24;9.77;;;7.13;;
40252;SDS011;25972;51.854;4.534;2023-12-04T10:15:02;9.75;;;8.60;;
40252;SDS011;25972;51.854;4.534;2023-12-04T10:17:32;11.10;;;7.47;;
40252;SDS011;25972;51.854;4.534;2023-12-04T10:20:03;10.45;;;9.35;;
40252;SDS011;25972;51.854;4.534;2023-12-04T10:22:37;11.27;;;9.90;;
40252;SDS011;25972;51.854;4.534;2023-12-04T10:25:18;10.93;;;9.63;;
40252;SDS011;25972;51.854;4.534;2023-12-04T10:27:44;11.48;;;9.50;;
40252;SDS011;25972;51.854;4.534;2023-12-04T10:30:21;11.52;;;8.95;;
40252;SDS011;25972;51.854;4.534;2023-12-04T10:32:48;10.15;;;9.15;;
40252;SDS011;25972;51.854;4.534;2023-12-04T10:35:14;11.73;;;9.80;;
40252;SDS011;25972;51.854;4.534;2023-12-04T10:37:41;14.20;;;10.23;;
40252;SDS011;25972;51.854;4.534;2023-12-04T10:40:08;14.13;;;9.93;;
40252;SDS011;25972;51.854;4.534;2023-12-04T10:42:34;11.27;;;10.07;;
40252;SDS011;25972;51.854;4.534;2023-12-04T10:45:00;10.05;;;9.05;;
40252;SDS011;25972;51.854;4.534;2023-12-04T10:47:28;11.07;;;9.50;;
40252;SDS011;25972;51.854;4.534;2023-12-04T10:49:56;10.95;;;9.43;;
40252;SDS011;25972;51.854;4.534;2023-12-04T10:52:22;11.95;;;9.90;;
40252;SDS011;25972;51.854;4.534;2023-12-04T10:54:50;12.13;;;10.48;;
40252;SDS011;25972;51.854;4.534;2023-12-04T10:57:18;13.57;;;9.45;;
40252;SDS011;25972;51.854;4.534;2023-12-04T10:59:47;11.48;;;10.38;;
40252;SDS011;25972;51.854;4.534;2023-12-04T11:02:21;12.57;;;9.48;;
40252;SDS011;25972;51.854;4.534;2023-12-04T11:04:53;11.52;;;10.18;;
40252;SDS011;25972;51.854;4.534;2023-12-04T11:07:23;11.50;;;10.32;;
40252;SDS011;25972;51.854;4.534;2023-12-04T11:09:53;10.63;;;9.52;;
40252;SDS011;25972;51.854;4.534;2023-12-04T11:12:21;11.77;;;10.35;;
40252;SDS011;25972;51.854;4.534;2023-12-04T11:14:56;11.30;;;10.10;;
40252;SDS011;25972;51.854;4.534;2023-12-04T11:17:27;10.48;;;9.48;;
40252;SDS011;25972;51.854;4.534;2023-12-04T11:20:01;11.00;;;9.90;;
40252;SDS011;25972;51.854;4.534;2023-12-04T11:22:34;10.98;;;9.95;;
40252;SDS011;25972;51.854;4.534;2023-12-04T11:25:02;11.57;;;10.15;;
40252;SDS011;25972;51.854;4.534;2023-12-04T11:27:30;10.73;;;9.63;;
40252;SDS011;25972;51.854;4.534;2023-12-04T11:29:57;13.25;;;10.20;;
40252;SDS011;25972;51.854;4.534;2023-12-04T11:32:24;10.90;;;9.93;;
40252;SDS011;25972;51.854;4.534;2023-12-04T11:34:54;12.50;;;10.77;;
40252;SDS011;25972;51.854;4.534;2023-12-04T11:37:21;11.95;;;10.65;;
40252;SDS011;25972;51.854;4.534;2023-12-04T11:39:49;10.95;;;9.88;;
40252;SDS011;25972;51.854;4.534;2023-12-04T11:42:19;11.13;;;9.95;;
40252;SDS011;25972;51.854;4.534;2023-12-04T11:44:48;11.45;;;10.45;;
40252;SDS011;25972;51.854;4.534;2023-12-04T11:47:15;12.02;;;10.63;;
40252;SDS011;25972;51.854;4.534;2023-12-04T11:49:42;12.15;;;10.98;;
40252;SDS011;25972;51.854;4.534;2023-12-04T11:52:09;12.43;;;11.13;;
40252;SDS011;25972;51.854;4.534;2023-12-04T11:57:33;10.60;;;9.80;;
40252;SDS011;25972;51.854;4.534;2023-12-04T12:00:11;12.43;;;11.20;;
40252;SDS011;25972;51.854;4.534;2023-12-04T12:02:46;11.95;;;10.68;;
40252;SDS011;25972;51.854;4.534;2023-12-04T12:05:13;11.65;;;10.52;;
40252;SDS011;25972;51.854;4.534;2023-12-04T12:07:39;10.10;;;9.30;;
40252;SDS011;25972;51.854;4.534;2023-12-04T12:10:05;13.35;;;10.65;;
40252;SDS011;25972;51.854;4.534;2023-12-04T12:12:35;11.48;;;10.38;;
40252;SDS011;25972;51.854;4.534;2023-12-04T12:15:02;11.10;;;10.07;;
40252;SDS011;25972;51.854;4.534;2023-12-04T12:17:28;17.95;;;12.20;;
40252;SDS011;25972;51.854;4.534;2023-12-04T12:19:55;11.77;;;10.75;;
40252;SDS011;25972;51.854;4.534;2023-12-04T12:22:24;15.95;;;13.07;;
40252;SDS011;25972;51.854;4.534;2023-12-04T12:24:50;12.75;;;11.48;;
40252;SDS011;25972;51.854;4.534;2023-12-04T12:27:17;11.98;;;10.88;;
40252;SDS011;25972;51.854;4.534;2023-12-04T12:29:44;10.98;;;10.05;;
40252;SDS011;25972;51.854;4.534;2023-12-04T12:32:10;12.82;;;11.50;;
40252;SDS011;25972;51.854;4.534;2023-12-04T12:34:36;12.52;;;11.23;;
40252;SDS011;25972;51.854;4.534;2023-12-04T12:37:02;13.02;;;11.73;;
40252;SDS011;25972;51.854;4.534;2023-12-04T12:39:31;11.60;;;10.68;;
40252;SDS011;25972;51.854;4.534;2023-12-04T12:41:57;13.23;;;11.88;;
40252;SDS011;25972;51.854;4.534;2023-12-04T12:44:23;12.50;;;11.40;;
40252;SDS011;25972;51.854;4.534;2023-12-04T12:46:50;11.65;;;10.45;;
40252;SDS011;25972;51.854;4.534;2023-12-04T12:49:17;11.88;;;10.80;;
40252;SDS011;25972;51.854;4.534;2023-12-04T12:51:44;11.48;;;10.57;;
40252;SDS011;25972;51.854;4.534;2023-12-04T12:54:13;12.00;;;11.00;;
40252;SDS011;25972;51.854;4.534;2023-12-04T12:56:39;12.90;;;11.00;;
40252;SDS011;25972;51.854;4.534;2023-12-04T12:59:05;13.02;;;11.98;;
40252;SDS011;25972;51.854;4.534;2023-12-04T13:01:32;12.02;;;10.93;;
40252;SDS011;25972;51.854;4.534;2023-12-04T13:03:59;11.85;;;10.80;;
40252;SDS011;25972;51.854;4.534;2023-12-04T13:06:26;11.32;;;10.43;;
40252;SDS011;25972;51.854;4.534;2023-12-04T13:08:52;12.93;;;11.70;;
40252;SDS011;25972;51.854;4.534;2023-12-04T13:11:18;13.25;;;11.65;;
40252;SDS011;25972;51.854;4.534;2023-12-04T13:13:44;12.23;;;11.23;;
40252;SDS011;25972;51.854;4.534;2023-12-04T13:16:10;16.10;;;14.18;;
40252;SDS011;25972;51.854;4.534;2023-12-04T13:18:36;12.50;;;11.43;;
40252;SDS011;25972;51.854;4.534;2023-12-04T13:21:04;13.95;;;12.57;;
40252;SDS011;25972;51.854;4.534;2023-12-04T13:23:30;13.40;;;12.23;;
40252;SDS011;25972;51.854;4.534;2023-12-04T13:25:56;10.60;;;9.80;;
40252;SDS011;25972;51.854;4.534;2023-12-04T13:28:22;13.63;;;12.40;;
40252;SDS011;25972;51.854;4.534;2023-12-04T13:30:48;13.05;;;11.77;;
40252;SDS011;25972;51.854;4.534;2023-12-04T13:33:14;12.40;;;11.30;;
40252;SDS011;25972;51.854;4.534;2023-12-04T13:35:40;13.57;;;12.20;;
40252;SDS011;25972;51.854;4.534;2023-12-04T13:38:08;13.15;;;11.82;;
40252;SDS011;25972;51.854;4.534;2023-12-04T13:40:38;13.73;;;12.43;;
40252;SDS011;25972;51.854;4.534;2023-12-04T13:43:04;14.18;;;12.77;;
40252;SDS011;25972;51.854;4.534;2023-12-04T13:45:49;13.15;;;11.88;;
40252;SDS011;25972;51.854;4.534;2023-12-04T13:48:16;13.85;;;12.45;;
40252;SDS011;25972;51.854;4.534;2023-12-04T13:50:43;11.40;;;10.50;;
40252;SDS011;25972;51.854;4.534;2023-12-04T13:53:11;14.55;;;12.75;;
40252;SDS011;25972;51.854;4.534;2023-12-04T13:55:39;13.95;;;12.55;;
40252;SDS011;25972;51.854;4.534;2023-12-04T13:58:20;13.10;;;11.90;;
40252;SDS011;25972;51.854;4.534;2023-12-04T14:01:01;13.30;;;12.10;;
40252;SDS011;25972;51.854;4.534;2023-12-04T14:03:37;13.70;;;12.38;;
40252;SDS011;25972;51.854;4.534;2023-12-04T14:06:03;14.00;;;12.55;;
40252;SDS011;25972;51.854;4.534;2023-12-04T14:08:31;12.32;;;11.23;;
40252;SDS011;25972;51.854;4.534;2023-12-04T14:10:57;13.27;;;11.90;;
40252;SDS011;25972;51.854;4.534;2023-12-04T14:13:23;14.50;;;13.00;;
40252;SDS011;25972;51.854;4.534;2023-12-04T14:15:49;14.20;;;12.85;;
40252;SDS011;25972;51.854;4.534;2023-12-04T14:18:15;12.13;;;11.10;;
40252;SDS011;25972;51.854;4.534;2023-12-04T14:20:41;11.98;;;10.90;;
40252;SDS011;25972;51.854;4.534;2023-12-04T14:23:07;13.05;;;11.70;;
40252;SDS011;25972;51.854;4.534;2023-12-04T14:25:35;11.77;;;10.77;;
40252;SDS011;25972;51.854;4.534;2023-12-04T14:28:01;11.73;;;10.57;;
40252;SDS011;25972;51.854;4.534;2023-12-04T14:30:27;13.43;;;12.15;;
40252;SDS011;25972;51.854;4.534;2023-12-04T14:32:53;12.27;;;11.02;;
40252;SDS011;25972;51.854;4.534;2023-12-04T14:35:21;12.02;;;10.85;;
40252;SDS011;25972;51.854;4.534;2023-12-04T14:37:47;12.52;;;11.32;;